Terminal Aerodrome Forecast
Issued by NWS Cleveland, OH

Home | Current Version | Previous Version | Text Only | Print | Product List | Glossary On
Versions: 1 2 3 4 5 6 7 8 9 10 11 12 13 14 15 16 17 18 19 20
463
FTUS41 KCLE 220904 AAA
TAFMFD
TAF AMD
KMFD 220904Z 2209/2306 18008KT P6SM OVC035
      TEMPO 2209/2212 3SM -SHRA BR OVC020
     FM221200 18010KT P6SM BKN040 OVC100 WS020/21040KT
     FM222100 18014G22KT 3SM -RA BR OVC012=

USA.gov is the U.S. government's official web portal to all federal, state and local government web resources and services.